Time;durP1;ratioP1;P1;durP2;ratioP2;P2;SDS_P1;SDS_P2;PMS_P1;PMS_P2;Temp;Humidity;BMP_temperature;BMP_pressure;BME280_temperature;BME280_humidity;BME280_pressure;Samples;Min_cycle;Max_cycle;Signal;HPM_P1;HPM_P2
2023/10/27 00:01:41;;;;;;;19.02;12.07;;;10.80;99.90;;;;;;5088772;28;20036;-74
2023/10/27 00:04:06;;;;;;;19.70;12.18;;;10.70;99.90;;;;;;5056085;28;20047;-74
2023/10/27 00:06:32;;;;;;;19.92;11.70;;;10.70;99.90;;;;;;5073849;28;20040;-74
2023/10/27 00:08:58;;;;;;;21.33;12.98;;;10.70;99.90;;;;;;5055694;28;20098;-74
2023/10/27 00:11:25;;;;;;;17.45;10.95;;;10.70;99.90;;;;;;5073444;28;20036;-74
2023/10/27 00:13:51;;;;;;;17.42;11.00;;;10.60;99.90;;;;;;5073666;28;20047;-74
2023/10/27 00:16:17;;;;;;;20.92;11.70;;;10.70;99.90;;;;;;5055976;28;20123;-74
2023/10/27 00:18:43;;;;;;;20.17;11.75;;;10.70;99.90;;;;;;5073379;28;20036;-74
2023/10/27 00:21:09;;;;;;;19.80;12.25;;;10.70;99.90;;;;;;5055351;28;20485;-74
2023/10/27 00:23:35;;;;;;;19.65;12.60;;;10.60;99.90;;;;;;5055756;28;20040;-75
2023/10/27 00:26:01;;;;;;;19.40;11.85;;;10.70;99.90;;;;;;5055621;28;20043;-74
2023/10/27 00:28:26;;;;;;;19.15;12.38;;;10.70;99.90;;;;;;5055098;28;20119;-74
2023/10/27 00:30:52;;;;;;;21.77;13.00;;;10.70;99.90;;;;;;5072022;28;20111;-74
2023/10/27 00:33:17;;;;;;;21.50;13.75;;;10.70;99.90;;;;;;5073186;28;20032;-74
2023/10/27 00:35:43;;;;;;;21.23;12.40;;;10.60;99.90;;;;;;5073435;28;20047;-74
2023/10/27 00:38:08;;;;;;;20.92;12.68;;;10.70;99.90;;;;;;5055147;28;20052;-74
2023/10/27 00:40:34;;;;;;;21.30;12.52;;;10.70;99.90;;;;;;5055164;28;20041;-74
2023/10/27 00:43:04;;;;;;;19.95;11.95;;;10.70;99.90;;;;;;5072966;28;20039;-74
2023/10/27 00:45:30;;;;;;;22.55;12.75;;;10.70;99.90;;;;;;5073068;28;20166;-74
2023/10/27 00:47:56;;;;;;;19.98;12.20;;;10.70;99.90;;;;;;5054827;28;20070;-74
2023/10/27 00:50:22;;;;;;;20.25;12.82;;;10.70;99.90;;;;;;5054873;28;20041;-74
2023/10/27 00:52:49;;;;;;;20.35;12.48;;;10.70;99.90;;;;;;5054555;28;20047;-75
2023/10/27 00:55:15;;;;;;;23.15;13.35;;;10.70;99.90;;;;;;5054753;28;20040;-74
2023/10/27 00:57:41;;;;;;;21.90;11.93;;;10.70;99.90;;;;;;5037985;28;20518;-74
2023/10/27 01:00:07;;;;;;;21.42;12.25;;;10.70;99.90;;;;;;5054564;28;20037;-75
2023/10/27 01:02:33;;;;;;;21.05;12.90;;;10.70;99.90;;;;;;5072468;28;20033;-74
2023/10/27 01:04:59;;;;;;;20.52;13.40;;;10.70;99.90;;;;;;5054944;28;20514;-75
2023/10/27 01:07:25;;;;;;;20.95;12.02;;;10.70;99.90;;;;;;5037997;28;20098;-75
2023/10/27 01:09:51;;;;;;;20.73;14.02;;;10.70;99.90;;;;;;5054442;28;20036;-75
2023/10/27 01:12:17;;;;;;;23.52;13.15;;;10.70;99.90;;;;;;5054365;28;20565;-74
2023/10/27 01:14:43;;;;;;;23.17;12.73;;;10.70;99.90;;;;;;5054485;28;20036;-74
2023/10/27 01:17:08;;;;;;;25.50;14.98;;;10.70;99.90;;;;;;5054298;28;20127;-74
2023/10/27 01:19:36;;;;;;;23.77;14.07;;;10.70;99.90;;;;;;5053896;28;20087;-74
2023/10/27 01:22:02;;;;;;;21.90;13.73;;;10.70;99.90;;;;;;5038040;28;20052;-74
2023/10/27 01:24:28;;;;;;;26.10;14.95;;;10.70;99.90;;;;;;5054108;28;20048;-74
2023/10/27 01:26:56;;;;;;;25.20;14.30;;;10.70;99.90;;;;;;5054213;28;20389;-74
2023/10/27 01:29:27;;;;;;;24.30;15.07;;;10.70;99.90;;;;;;5054109;28;20036;-74
2023/10/27 01:31:53;;;;;;;23.95;13.52;;;10.60;99.90;;;;;;5054320;28;20037;-75
2023/10/27 01:34:19;;;;;;;24.15;14.10;;;10.60;99.90;;;;;;5054295;28;20039;-75
2023/10/27 01:36:44;;;;;;;28.65;16.67;;;10.60;99.90;;;;;;5072186;28;20048;-75
2023/10/27 01:39:11;;;;;;;25.15;14.20;;;10.60;99.90;;;;;;5053631;28;20037;-75
2023/10/27 01:41:37;;;;;;;27.15;15.65;;;10.60;99.90;;;;;;5037007;28;20040;-74
2023/10/27 01:44:02;;;;;;;22.77;14.05;;;10.60;99.90;;;;;;5053555;28;20470;-74
2023/10/27 01:46:28;;;;;;;24.50;15.32;;;10.60;99.90;;;;;;5053862;28;20043;-74
2023/10/27 01:48:54;;;;;;;26.58;15.68;;;10.60;99.90;;;;;;5054111;28;20032;-74
2023/10/27 01:51:19;;;;;;;26.23;15.18;;;10.60;99.90;;;;;;5053719;28;20051;-74
2023/10/27 01:53:45;;;;;;;25.40;15.63;;;10.60;99.90;;;;;;5071951;28;20040;-74
2023/10/27 01:56:11;;;;;;;23.98;14.18;;;10.60;99.90;;;;;;5054185;28;20040;-74
2023/10/27 01:58:40;;;;;;;24.35;14.27;;;10.60;99.90;;;;;;5054597;28;20431;-74
2023/10/27 02:01:06;;;;;;;23.85;13.95;;;10.50;99.90;;;;;;5037073;28;20044;-75
2023/10/27 02:03:32;;;;;;;26.95;15.07;;;10.50;99.90;;;;;;5054061;28;20514;-75
2023/10/27 02:05:58;;;;;;;24.55;14.05;;;10.60;99.90;;;;;;5037036;28;20101;-74
2023/10/27 02:08:24;;;;;;;27.13;14.75;;;10.60;99.90;;;;;;5071619;28;20119;-74
2023/10/27 02:10:49;;;;;;;21.33;12.98;;;10.60;99.90;;;;;;5053602;28;20403;-74
2023/10/27 02:13:15;;;;;;;21.05;13.02;;;10.60;99.90;;;;;;5053599;28;20041;-75
2023/10/27 02:15:41;;;;;;;22.60;13.15;;;10.50;99.90;;;;;;5053542;28;20041;-74
2023/10/27 02:18:07;;;;;;;19.58;12.80;;;10.60;99.90;;;;;;5071607;28;20121;-74
2023/10/27 02:20:33;;;;;;;18.10;12.32;;;10.60;99.90;;;;;;5053420;28;20044;-74
2023/10/27 02:22:58;;;;;;;19.13;12.25;;;10.50;99.90;;;;;;5071468;28;20230;-74
2023/10/27 02:25:24;;;;;;;21.48;13.32;;;10.60;99.90;;;;;;5040876;28;20697;-75
2023/10/27 02:27:49;;;;;;;18.70;12.13;;;10.50;99.90;;;;;;5073357;28;20119;-75
2023/10/27 02:30:15;;;;;;;20.60;12.55;;;10.60;99.90;;;;;;5073642;28;20040;-75
2023/10/27 02:32:41;;;;;;;18.50;12.15;;;10.60;99.90;;;;;;5073506;28;20036;-74
2023/10/27 02:35:07;;;;;;;17.75;11.77;;;10.50;99.90;;;;;;5073523;28;20086;-75
2023/10/27 02:37:32;;;;;;;19.92;12.95;;;10.50;99.90;;;;;;5073577;28;20040;-75
2023/10/27 02:39:58;;;;;;;18.25;11.93;;;10.50;99.90;;;;;;5073433;28;20036;-74
2023/10/27 02:42:23;;;;;;;20.08;12.18;;;10.50;99.90;;;;;;5073136;28;20454;-75
2023/10/27 02:44:49;;;;;;;18.52;12.93;;;10.50;99.90;;;;;;5073450;28;20127;-75
2023/10/27 02:47:14;;;;;;;19.70;12.38;;;10.50;99.90;;;;;;5073321;28;20028;-75
2023/10/27 02:49:40;;;;;;;17.73;12.02;;;10.40;99.90;;;;;;5056548;28;20496;-74
2023/10/27 02:52:06;;;;;;;18.95;12.27;;;10.50;99.90;;;;;;5073513;28;20036;-75
2023/10/27 02:54:31;;;;;;;20.58;12.10;;;10.40;99.90;;;;;;5076615;28;20028;-74
2023/10/27 02:56:57;;;;;;;19.45;11.80;;;10.50;99.90;;;;;;5095284;28;20040;-74
2023/10/27 02:59:23;;;;;;;19.30;11.85;;;10.50;99.90;;;;;;5077185;28;20032;-74
2023/10/27 03:01:48;;;;;;;19.80;12.52;;;10.50;99.90;;;;;;5077099;28;20109;-74
2023/10/27 03:04:14;;;;;;;16.85;10.88;;;10.50;99.90;;;;;;5058615;28;20574;-74
2023/10/27 03:06:41;;;;;;;20.67;12.98;;;10.50;99.90;;;;;;5056646;28;20426;-74
2023/10/27 03:09:07;;;;;;;22.38;12.27;;;10.40;99.90;;;;;;5056222;28;20033;-74
2023/10/27 03:11:32;;;;;;;26.98;13.30;;;10.50;99.90;;;;;;5056470;28;20043;-74
2023/10/27 03:13:58;;;;;;;15.93;11.18;;;10.50;99.90;;;;;;5056337;28;20094;-74
2023/10/27 03:16:24;;;;;;;19.92;11.73;;;10.50;99.90;;;;;;5052045;28;20392;-75
2023/10/27 03:18:50;;;;;;;20.35;12.52;;;10.50;99.90;;;;;;5071808;28;20038;-74
2023/10/27 03:21:16;;;;;;;21.10;12.35;;;10.50;99.90;;;;;;5068231;28;20110;-74
2023/10/27 03:23:41;;;;;;;19.20;12.20;;;10.50;99.90;;;;;;5094793;28;20122;-74
2023/10/27 03:26:07;;;;;;;19.15;12.02;;;10.40;99.90;;;;;;5076444;28;20040;-74
2023/10/27 03:28:33;;;;;;;23.40;12.95;;;10.40;99.90;;;;;;5071325;28;20032;-74
2023/10/27 03:30:58;;;;;;;19.88;12.60;;;10.40;99.90;;;;;;5056347;28;20044;-74
2023/10/27 03:33:24;;;;;;;21.05;12.32;;;10.40;99.90;;;;;;5076388;28;20071;-74
2023/10/27 03:35:50;;;;;;;19.65;11.68;;;10.30;99.90;;;;;;5076538;28;20032;-74
2023/10/27 03:38:17;;;;;;;20.42;12.10;;;10.40;99.90;;;;;;5094252;28;20043;-74
2023/10/27 03:40:44;;;;;;;21.63;11.75;;;10.40;99.90;;;;;;5076111;28;20036;-74
2023/10/27 03:43:10;;;;;;;20.55;12.25;;;10.40;99.90;;;;;;5076387;28;20495;-74
2023/10/27 03:45:37;;;;;;;17.45;11.57;;;10.30;99.90;;;;;;5076165;28;20047;-74
2023/10/27 03:48:03;;;;;;;19.77;11.50;;;10.30;99.90;;;;;;5075966;28;20491;-74
2023/10/27 03:50:29;;;;;;;18.00;11.57;;;10.30;99.90;;;;;;5076435;28;20392;-74
2023/10/27 03:52:54;;;;;;;15.95;10.73;;;10.30;99.90;;;;;;5075728;28;20038;-74
2023/10/27 03:55:20;;;;;;;18.70;12.73;;;10.30;99.90;;;;;;5067404;28;20388;-74
2023/10/27 03:57:46;;;;;;;19.15;11.80;;;10.30;99.90;;;;;;5094080;28;20079;-74
2023/10/27 04:00:13;;;;;;;17.33;11.85;;;10.20;99.90;;;;;;5075803;28;20039;-74
2023/10/27 04:02:39;;;;;;;17.75;10.82;;;10.20;99.90;;;;;;5058946;28;20044;-74
2023/10/27 04:05:05;;;;;;;22.05;13.05;;;10.20;99.90;;;;;;5074631;28;20123;-74
2023/10/27 04:07:31;;;;;;;19.50;12.40;;;10.20;99.90;;;;;;5075802;28;20051;-74
2023/10/27 04:09:57;;;;;;;20.17;11.98;;;10.10;99.90;;;;;;5075555;28;20032;-74
2023/10/27 04:12:22;;;;;;;21.25;11.93;;;10.10;99.90;;;;;;5075599;28;20032;-74
2023/10/27 04:14:48;;;;;;;19.33;11.80;;;10.10;99.90;;;;;;5094076;28;20436;-74
2023/10/27 04:17:14;;;;;;;21.17;13.30;;;10.10;99.90;;;;;;5075922;28;20051;-74
2023/10/27 04:19:44;;;;;;;23.70;12.68;;;10.10;99.90;;;;;;5082749;28;20036;-74
2023/10/27 04:22:10;;;;;;;20.13;12.32;;;10.10;99.90;;;;;;5072458;28;20498;-74
2023/10/27 04:24:36;;;;;;;23.15;13.10;;;10.00;99.90;;;;;;5075096;28;20503;-74
2023/10/27 04:27:02;;;;;;;22.60;12.95;;;10.00;99.90;;;;;;5075357;28;20047;-75
2023/10/27 04:29:28;;;;;;;21.40;12.60;;;10.10;99.90;;;;;;5058849;28;20043;-75
2023/10/27 04:31:53;;;;;;;21.65;13.32;;;10.10;99.90;;;;;;5075145;28;20569;-74
2023/10/27 04:34:20;;;;;;;21.67;13.07;;;10.00;99.90;;;;;;5075334;28;20032;-74
2023/10/27 04:36:45;;;;;;;21.48;13.23;;;10.00;99.90;;;;;;5075555;28;20092;-74
2023/10/27 04:39:11;;;;;;;20.27;12.32;;;10.00;99.90;;;;;;5074714;28;20462;-74
2023/10/27 04:41:37;;;;;;;21.17;12.00;;;10.00;99.90;;;;;;5075251;28;20051;-74
2023/10/27 04:44:03;;;;;;;19.10;12.30;;;10.00;99.90;;;;;;5058396;28;20636;-74
2023/10/27 04:46:28;;;;;;;19.75;12.88;;;10.00;99.90;;;;;;5058351;28;20050;-74
2023/10/27 04:48:56;;;;;;;21.40;12.98;;;9.90;99.90;;;;;;5074843;28;20035;-74
2023/10/27 04:51:23;;;;;;;21.52;12.63;;;9.90;99.90;;;;;;5074702;28;20123;-74
2023/10/27 04:53:49;;;;;;;17.73;12.15;;;9.90;99.90;;;;;;5074555;28;20094;-74
2023/10/27 04:56:16;;;;;;;19.42;12.13;;;9.90;99.90;;;;;;5074847;28;20040;-74
2023/10/27 04:58:44;;;;;;;23.13;13.45;;;9.90;99.90;;;;;;5074548;28;20065;-74
2023/10/27 05:01:10;;;;;;;21.20;12.48;;;9.90;99.90;;;;;;5074399;28;20044;-74
2023/10/27 05:03:35;;;;;;;17.42;11.75;;;9.90;99.90;;;;;;5075012;28;20123;-74
2023/10/27 05:06:11;;;;;;;22.70;13.35;;;9.90;99.90;;;;;;5074837;28;20042;-74
2023/10/27 05:08:37;;;;;;;23.05;12.43;;;9.90;99.90;;;;;;5074589;28;20044;-74
2023/10/27 05:11:03;;;;;;;23.40;13.00;;;9.90;99.90;;;;;;5074573;28;20094;-74
2023/10/27 05:13:29;;;;;;;23.48;13.63;;;9.90;99.90;;;;;;5074398;28;20534;-74
2023/10/27 05:15:55;;;;;;;23.30;13.70;;;9.90;99.90;;;;;;5057516;28;20042;-74
2023/10/27 05:18:20;;;;;;;20.35;12.50;;;9.90;99.90;;;;;;5074660;28;20040;-74
2023/10/27 05:20:47;;;;;;;21.63;12.93;;;10.00;99.90;;;;;;5074118;28;20036;-74
2023/10/27 05:23:12;;;;;;;19.58;12.60;;;9.90;99.90;;;;;;5074216;28;20086;-74
2023/10/27 05:25:40;;;;;;;20.95;13.10;;;10.00;99.90;;;;;;5074551;28;20463;-74
2023/10/27 05:28:06;;;;;;;23.58;13.73;;;10.00;99.90;;;;;;5057353;28;20047;-73
2023/10/27 05:30:34;;;;;;;21.52;13.02;;;9.90;99.90;;;;;;5057303;28;20032;-74
2023/10/27 05:33:00;;;;;;;24.10;13.63;;;10.00;99.90;;;;;;5074021;28;20039;-74
2023/10/27 05:35:25;;;;;;;19.98;13.05;;;10.00;99.90;;;;;;5074125;28;20036;-75
2023/10/27 05:37:51;;;;;;;20.38;12.65;;;10.00;99.90;;;;;;5073915;28;20043;-74
2023/10/27 05:40:17;;;;;;;20.92;12.40;;;10.10;99.90;;;;;;5074005;28;20123;-74
2023/10/27 05:42:42;;;;;;;21.27;13.35;;;10.00;99.90;;;;;;5073922;28;20055;-74
2023/10/27 05:45:11;;;;;;;23.27;13.35;;;10.10;99.90;;;;;;5073957;28;20047;-74
2023/10/27 05:47:40;;;;;;;22.92;14.65;;;10.10;99.90;;;;;;5073822;28;20040;-74
2023/10/27 05:50:07;;;;;;;23.33;13.27;;;10.10;99.90;;;;;;5091903;28;20080;-75
2023/10/27 05:52:33;;;;;;;25.48;12.55;;;10.10;99.90;;;;;;5073584;28;20032;-74
2023/10/27 05:54:58;;;;;;;20.70;11.48;;;10.10;99.90;;;;;;5073747;28;20043;-75
2023/10/27 05:57:24;;;;;;;24.23;12.88;;;10.10;99.90;;;;;;5074049;28;20118;-74
2023/10/27 05:59:49;;;;;;;26.40;13.75;;;10.10;99.90;;;;;;5073649;28;20519;-74
2023/10/27 06:02:15;;;;;;;22.38;12.02;;;10.10;99.90;;;;;;5073531;28;20139;-74
2023/10/27 06:04:40;;;;;;;21.75;12.57;;;10.10;99.90;;;;;;5073466;28;20039;-74
2023/10/27 06:07:06;;;;;;;24.52;13.15;;;10.20;99.90;;;;;;5073516;28;20130;-74
2023/10/27 06:09:32;;;;;;;21.50;13.38;;;10.20;99.90;;;;;;5091622;28;20506;-74
2023/10/27 06:11:57;;;;;;;18.80;11.75;;;10.20;99.90;;;;;;5091697;28;20036;-74
2023/10/27 06:14:23;;;;;;;20.17;12.68;;;10.20;99.90;;;;;;5057130;28;20040;-74
2023/10/27 06:16:49;;;;;;;19.70;11.68;;;10.20;99.90;;;;;;5073400;28;20127;-74
2023/10/27 06:19:14;;;;;;;18.95;12.05;;;10.20;99.90;;;;;;5073527;28;20158;-74
2023/10/27 06:21:40;;;;;;;17.20;11.43;;;10.20;99.90;;;;;;5073786;28;20036;-74
2023/10/27 06:24:10;;;;;;;22.73;11.57;;;10.20;99.90;;;;;;5073545;28;20125;-74
2023/10/27 06:26:36;;;;;;;17.45;11.48;;;10.20;99.90;;;;;;5091691;28;20043;-73
2023/10/27 06:29:01;;;;;;;19.58;11.77;;;10.20;99.90;;;;;;5095307;28;20036;-74
2023/10/27 06:31:27;;;;;;;19.25;11.15;;;10.20;99.90;;;;;;5077749;28;20032;-74
2023/10/27 06:33:54;;;;;;;19.25;11.45;;;10.30;99.90;;;;;;5077536;28;20048;-75
2023/10/27 06:36:19;;;;;;;17.02;10.68;;;10.20;99.90;;;;;;5077501;28;20039;-74
2023/10/27 06:38:45;;;;;;;18.98;10.68;;;10.20;99.90;;;;;;5077472;28;20097;-74
2023/10/27 06:41:10;;;;;;;17.02;11.63;;;10.20;99.90;;;;;;5095218;28;20043;-74
2023/10/27 06:43:36;;;;;;;15.77;10.57;;;10.20;99.90;;;;;;5095288;28;20043;-75
2023/10/27 06:46:01;;;;;;;18.98;11.23;;;10.20;99.90;;;;;;5094969;28;20051;-75
2023/10/27 06:48:27;;;;;;;16.08;10.88;;;10.20;99.90;;;;;;5077527;28;20088;-75
2023/10/27 06:50:53;;;;;;;17.08;10.77;;;10.20;99.90;;;;;;5077104;28;20123;-74
2023/10/27 06:53:18;;;;;;;17.65;10.73;;;10.20;99.90;;;;;;5095637;28;20036;-75
2023/10/27 06:55:44;;;;;;;17.92;11.15;;;10.20;99.90;;;;;;5060649;28;20180;-75
2023/10/27 06:58:09;;;;;;;18.17;10.40;;;10.20;99.90;;;;;;5077389;28;20043;-74
2023/10/27 07:00:35;;;;;;;19.20;11.50;;;10.20;99.90;;;;;;5077153;28;20499;-75
2023/10/27 07:03:01;;;;;;;17.90;11.50;;;10.20;99.90;;;;;;5077071;28;20044;-75
2023/10/27 07:05:26;;;;;;;15.95;11.07;;;10.20;99.90;;;;;;5076927;28;20136;-75
2023/10/27 07:07:52;;;;;;;17.83;11.50;;;10.30;99.90;;;;;;5076986;28;20166;-74
2023/10/27 07:10:18;;;;;;;18.90;11.00;;;10.30;99.90;;;;;;5077017;28;20042;-74
2023/10/27 07:12:44;;;;;;;17.55;11.88;;;10.20;99.90;;;;;;5076707;28;20470;-75
2023/10/27 07:15:12;;;;;;;17.15;10.23;;;10.20;99.90;;;;;;5076905;28;20032;-75
2023/10/27 07:17:38;;;;;;;17.02;10.77;;;10.20;99.90;;;;;;5076715;28;20039;-75
2023/10/27 07:20:04;;;;;;;18.45;10.73;;;10.30;99.90;;;;;;5075970;28;20097;-74
2023/10/27 07:22:30;;;;;;;16.33;10.73;;;10.20;99.90;;;;;;5076101;28;20040;-75
2023/10/27 07:24:56;;;;;;;17.52;10.88;;;10.20;99.90;;;;;;5076565;28;20050;-74
2023/10/27 07:27:21;;;;;;;18.58;10.65;;;10.30;99.90;;;;;;5094773;28;20036;-75
2023/10/27 07:29:47;;;;;;;15.10;9.80;;;10.30;99.90;;;;;;5094639;28;20539;-74
2023/10/27 07:32:13;;;;;;;15.60;10.07;;;10.30;99.90;;;;;;5076268;28;20563;-75
2023/10/27 07:34:38;;;;;;;17.50;10.68;;;10.30;99.90;;;;;;5076508;28;20075;-75
2023/10/27 07:37:04;;;;;;;15.88;10.63;;;10.30;99.90;;;;;;5094272;28;20071;-74
2023/10/27 07:39:30;;;;;;;17.02;9.60;;;10.40;99.90;;;;;;5075594;28;20044;-74
2023/10/27 07:41:56;;;;;;;14.65;10.20;;;10.40;99.90;;;;;;5093244;28;20115;-75
2023/10/27 07:44:22;;;;;;;17.08;9.85;;;10.40;99.90;;;;;;5094463;28;20085;-75
2023/10/27 07:46:47;;;;;;;15.35;9.98;;;10.40;99.90;;;;;;5093021;28;20111;-74
2023/10/27 07:49:13;;;;;;;17.55;10.63;;;10.40;99.90;;;;;;5094370;28;20506;-74
2023/10/27 07:51:39;;;;;;;16.23;10.35;;;10.40;99.90;;;;;;5075794;28;20411;-74
2023/10/27 07:54:05;;;;;;;14.93;9.38;;;10.40;99.90;;;;;;5076439;28;20036;-74
2023/10/27 07:56:32;;;;;;;16.70;10.15;;;10.40;99.90;;;;;;5094350;28;20078;-74
2023/10/27 07:58:58;;;;;;;15.90;10.60;;;10.40;99.90;;;;;;5076034;28;20580;-75
2023/10/27 08:01:24;;;;;;;15.15;9.75;;;10.40;99.90;;;;;;5075731;28;20085;-74
2023/10/27 08:03:50;;;;;;;16.33;10.90;;;10.40;99.90;;;;;;5076258;28;20092;-74
2023/10/27 08:06:17;;;;;;;15.43;10.30;;;10.40;99.90;;;;;;5094110;28;20048;-74
2023/10/27 08:08:42;;;;;;;15.60;10.18;;;10.40;99.90;;;;;;5093971;28;20438;-74
2023/10/27 08:11:14;;;;;;;17.90;10.68;;;10.40;99.90;;;;;;5075863;28;20040;-74
2023/10/27 08:13:40;;;;;;;15.18;9.70;;;10.40;99.90;;;;;;5093902;28;20088;-74
2023/10/27 08:16:06;;;;;;;14.77;10.35;;;10.40;99.90;;;;;;5075659;28;20450;-74
2023/10/27 08:18:31;;;;;;;14.25;9.68;;;10.40;99.90;;;;;;5093810;28;20037;-74
2023/10/27 08:20:57;;;;;;;18.63;9.70;;;10.50;99.90;;;;;;5093682;28;20404;-74
2023/10/27 08:23:23;;;;;;;15.40;9.38;;;10.40;99.90;;;;;;5093831;28;20032;-74
2023/10/27 08:25:52;;;;;;;12.93;8.80;;;10.40;99.90;;;;;;5075465;28;20048;-74
2023/10/27 08:28:19;;;;;;;14.93;8.82;;;10.50;99.90;;;;;;5093414;28;20062;-74
2023/10/27 08:30:45;;;;;;;12.88;8.57;;;10.50;99.90;;;;;;5075126;28;20036;-74
2023/10/27 08:33:11;;;;;;;12.63;8.88;;;10.50;99.90;;;;;;5075241;28;20038;-74
2023/10/27 08:35:36;;;;;;;14.98;9.05;;;10.40;99.90;;;;;;5075298;28;20090;-74
2023/10/27 08:38:02;;;;;;;12.27;7.93;;;10.50;99.90;;;;;;5075042;28;20040;-74
2023/10/27 08:40:28;;;;;;;11.70;7.72;;;10.50;99.90;;;;;;5075141;28;20073;-75
2023/10/27 08:42:54;;;;;;;12.95;9.07;;;10.50;99.90;;;;;;5074912;28;20043;-74
2023/10/27 08:45:22;;;;;;;11.93;7.53;;;10.60;99.90;;;;;;5075398;28;20067;-74
2023/10/27 08:47:47;;;;;;;13.63;9.10;;;10.50;99.90;;;;;;5075415;28;20040;-74
2023/10/27 08:50:13;;;;;;;12.38;8.20;;;10.60;99.90;;;;;;5074324;28;20544;-74
2023/10/27 08:52:39;;;;;;;12.00;8.00;;;10.60;99.90;;;;;;5074744;28;20043;-74
2023/10/27 08:55:12;;;;;;;12.38;8.80;;;10.60;99.90;;;;;;5074828;28;20032;-74
2023/10/27 08:57:38;;;;;;;12.05;8.75;;;10.60;99.90;;;;;;5074736;28;20046;-75
2023/10/27 09:00:07;;;;;;;12.20;8.35;;;10.60;99.90;;;;;;5074643;28;20131;-75
2023/10/27 09:02:35;;;;;;;12.73;7.82;;;10.60;99.90;;;;;;5074510;28;20089;-74
2023/10/27 09:05:09;;;;;;;12.25;8.20;;;10.70;99.90;;;;;;5074708;28;20040;-74
2023/10/27 09:07:37;;;;;;;12.15;8.02;;;10.70;99.90;;;;;;5074585;28;20392;-74
2023/10/27 09:10:04;;;;;;;12.48;7.43;;;10.70;99.90;;;;;;5057974;28;20036;-74
2023/10/27 09:12:30;;;;;;;13.55;7.93;;;10.70;99.90;;;;;;5074292;28;20036;-74
2023/10/27 09:15:07;;;;;;;13.20;8.27;;;10.70;99.90;;;;;;5074540;28;20040;-74
2023/10/27 09:17:53;;;;;;;13.55;8.35;;;10.80;99.90;;;;;;5057531;28;20483;-74
2023/10/27 09:20:21;;;;;;;12.40;7.53;;;10.70;99.90;;;;;;5074276;28;20074;-74
2023/10/27 09:23:06;;;;;;;10.73;7.20;;;10.80;99.90;;;;;;5074209;28;20543;-74
2023/10/27 09:25:33;;;;;;;10.13;6.75;;;10.80;99.90;;;;;;5074155;28;20043;-74
2023/10/27 09:28:01;;;;;;;11.50;7.05;;;10.80;99.90;;;;;;5074373;28;20407;-75
2023/10/27 09:30:38;;;;;;;10.70;7.93;;;10.80;99.90;;;;;;5074145;28;20032;-74
2023/10/27 09:33:15;;;;;;;10.23;7.15;;;10.90;99.90;;;;;;5073879;28;20040;-75
2023/10/27 09:35:41;;;;;;;10.95;7.15;;;10.90;99.90;;;;;;5074302;28;20082;-74
2023/10/27 09:38:08;;;;;;;9.25;6.63;;;10.90;99.90;;;;;;5074180;28;20071;-75
2023/10/27 09:40:36;;;;;;;13.73;7.22;;;11.00;99.90;;;;;;5074088;28;20052;-74
2023/10/27 09:43:02;;;;;;;8.88;6.43;;;11.00;99.90;;;;;;5073956;28;20495;-75
2023/10/27 09:45:29;;;;;;;12.90;6.78;;;11.10;99.90;;;;;;5073868;28;20036;-74
2023/10/27 09:48:03;;;;;;;9.40;6.32;;;11.10;99.90;;;;;;5074002;28;20047;-74
2023/10/27 09:50:30;;;;;;;9.25;6.45;;;11.10;99.90;;;;;;5073914;28;20085;-74
2023/10/27 09:53:00;;;;;;;9.52;6.30;;;11.10;99.90;;;;;;5074013;28;20044;-74
2023/10/27 09:55:33;;;;;;;10.55;6.25;;;11.20;99.90;;;;;;5074227;28;20036;-74
2023/10/27 09:58:01;;;;;;;8.90;6.25;;;11.10;99.90;;;;;;5073908;28;20499;-74
2023/10/27 10:00:28;;;;;;;8.50;6.07;;;11.20;99.90;;;;;;5073764;28;20044;-74
2023/10/27 10:02:56;;;;;;;9.68;6.22;;;11.20;99.90;;;;;;5073888;28;20058;-74
2023/10/27 10:05:23;;;;;;;9.25;7.18;;;11.20;99.90;;;;;;5057343;28;20043;-74
2023/10/27 10:07:52;;;;;;;10.05;6.18;;;11.20;99.90;;;;;;5073978;28;20481;-74
2023/10/27 10:10:34;;;;;;;9.32;6.55;;;11.20;99.90;;;;;;5073658;28;20031;-74
2023/10/27 10:13:12;;;;;;;9.20;6.05;;;11.30;99.90;;;;;;5073684;28;20085;-74
2023/10/27 10:15:39;;;;;;;8.82;5.95;;;11.20;99.90;;;;;;5073956;28;20048;-74
2023/10/27 10:18:07;;;;;;;8.25;5.68;;;11.20;99.90;;;;;;5073601;28;20050;-74
2023/10/27 10:20:43;;;;;;;8.85;6.25;;;11.20;99.90;;;;;;5073850;28;20039;-74
2023/10/27 10:23:09;;;;;;;7.30;5.75;;;11.20;99.90;;;;;;5073972;28;20044;-74
2023/10/27 10:25:35;;;;;;;10.85;6.10;;;11.20;99.90;;;;;;5091909;28;20142;-75
2023/10/27 10:28:07;;;;;;;10.68;6.90;;;11.30;99.90;;;;;;5073445;28;20032;-74
2023/10/27 10:30:33;;;;;;;12.20;7.25;;;11.20;99.90;;;;;;5073434;28;20036;-74
2023/10/27 10:33:16;;;;;;;13.30;6.57;;;11.20;99.90;;;;;;5091509;28;20066;-74
2023/10/27 10:35:46;;;;;;;;;;;11.20;99.90;;;;;;5074242;28;20040;-74
2023/10/27 10:38:24;;;;;;;15.88;10.18;;;11.20;99.90;;;;;;5091193;28;19916;-74
2023/10/27 10:40:56;;;;;;;19.88;12.93;;;11.20;99.90;;;;;;5090533;28;20028;-75
2023/10/27 10:43:30;;;;;;;16.77;10.90;;;11.20;99.90;;;;;;5090824;28;20091;-74
2023/10/27 10:45:58;;;;;;;14.90;8.73;;;11.20;99.90;;;;;;5072560;28;20503;-74
2023/10/27 10:48:28;;;;;;;14.05;8.70;;;11.20;99.90;;;;;;5072662;28;20071;-74
2023/10/27 10:50:58;;;;;;;13.15;8.07;;;11.20;99.90;;;;;;5072167;28;20032;-74
2023/10/27 10:53:24;;;;;;;15.18;9.48;;;11.20;99.90;;;;;;5072918;28;20040;-74
2023/10/27 10:55:56;;;;;;;16.35;9.25;;;11.20;99.90;;;;;;5072342;28;20456;-74
2023/10/27 10:58:22;;;;;;;14.80;9.35;;;11.20;99.90;;;;;;5072224;28;20526;-75
2023/10/27 11:00:48;;;;;;;19.63;12.63;;;11.20;99.90;;;;;;5072083;28;20032;-74
2023/10/27 11:03:14;;;;;;;21.58;13.65;;;11.30;99.90;;;;;;5072341;28;20043;-74
2023/10/27 11:05:41;;;;;;;26.17;16.92;;;11.30;99.90;;;;;;5055903;28;20067;-74
2023/10/27 11:08:07;;;;;;;28.67;18.13;;;11.30;99.90;;;;;;5072134;28;20044;-74
2023/10/27 11:10:33;;;;;;;28.17;18.52;;;11.20;99.90;;;;;;5055615;28;20028;-74
2023/10/27 11:13:06;;;;;;;30.38;18.67;;;11.30;99.90;;;;;;5072331;28;20059;-74
2023/10/27 11:15:52;;;;;;;30.25;18.00;;;11.30;99.90;;;;;;5075930;28;20043;-74
2023/10/27 11:18:18;;;;;;;32.72;19.17;;;11.20;99.90;;;;;;5075146;28;20576;-74
2023/10/27 11:20:44;;;;;;;32.28;19.55;;;11.20;99.90;;;;;;5058645;28;20067;-74
2023/10/27 11:23:14;;;;;;;30.60;17.63;;;11.20;99.90;;;;;;5075571;28;20043;-74
2023/10/27 11:25:41;;;;;;;30.05;17.80;;;11.30;99.90;;;;;;5075685;28;20033;-74
2023/10/27 11:28:17;;;;;;;26.20;16.25;;;11.30;99.90;;;;;;5075348;28;20115;-75
2023/10/27 11:30:43;;;;;;;23.02;13.88;;;11.20;99.90;;;;;;5075633;28;20071;-74
2023/10/27 11:33:08;;;;;;;20.17;11.55;;;11.30;99.90;;;;;;5058700;28;20576;-74
2023/10/27 11:35:44;;;;;;;21.80;14.15;;;11.30;99.90;;;;;;5075363;28;20454;-74
2023/10/27 11:38:10;;;;;;;23.30;14.05;;;11.30;99.90;;;;;;5022347;28;1039816;-74
2023/10/27 11:40:36;;;;;;;21.38;12.02;;;11.30;99.90;;;;;;5076388;28;20040;-74
2023/10/27 11:43:01;;;;;;;15.65;10.00;;;11.30;99.90;;;;;;5094503;28;20121;-74
2023/10/27 11:45:27;;;;;;;15.32;9.57;;;11.30;99.90;;;;;;5094506;28;20036;-74
2023/10/27 11:47:52;;;;;;;15.30;8.75;;;11.30;99.90;;;;;;5094479;28;20032;-74
2023/10/27 11:50:18;;;;;;;14.82;9.00;;;11.20;99.90;;;;;;5076098;28;20558;-74
2023/10/27 11:52:43;;;;;;;17.13;9.30;;;11.20;99.90;;;;;;5094175;28;20036;-74
2023/10/27 11:55:09;;;;;;;14.48;8.90;;;11.20;99.90;;;;;;5076190;28;20446;-74
2023/10/27 11:57:36;;;;;;;13.98;9.23;;;11.10;99.90;;;;;;5076135;28;20039;-74
2023/10/27 12:00:02;;;;;;;13.50;8.35;;;11.20;99.90;;;;;;5076058;28;20081;-74
2023/10/27 12:02:28;;;;;;;17.08;10.05;;;11.20;99.90;;;;;;5059186;28;20040;-74
2023/10/27 12:04:53;;;;;;;18.15;10.45;;;11.30;99.90;;;;;;5094228;28;20032;-74
2023/10/27 12:07:19;;;;;;;17.40;10.02;;;11.20;99.90;;;;;;5094001;28;20048;-74
2023/10/27 12:09:45;;;;;;;17.50;9.88;;;11.30;99.90;;;;;;5094085;28;20068;-74
2023/10/27 12:12:10;;;;;;;18.00;11.57;;;11.20;99.90;;;;;;5075633;28;20081;-74
2023/10/27 12:14:37;;;;;;;19.55;11.52;;;11.20;99.90;;;;;;5075844;28;20036;-74
2023/10/27 12:17:04;;;;;;;18.42;11.18;;;11.20;99.90;;;;;;5094017;28;20040;-74
2023/10/27 12:19:31;;;;;;;17.52;11.02;;;11.20;99.90;;;;;;5075846;28;20051;-74
2023/10/27 12:21:57;;;;;;;15.30;10.15;;;11.20;99.90;;;;;;5075749;28;20032;-74
2023/10/27 12:24:23;;;;;;;19.80;10.93;;;11.20;99.90;;;;;;5093517;28;20426;-74
2023/10/27 12:26:49;;;;;;;17.67;10.38;;;11.20;99.90;;;;;;5074942;28;20048;-74
2023/10/27 12:29:15;;;;;;;19.83;11.32;;;11.20;99.90;;;;;;5075593;28;20047;-74